createdAt,value
2019-03-22T00:00:10.649Z,15.90
2019-03-22T00:02:19.087Z,15.77
2019-03-22T00:04:24.420Z,13.57
2019-03-22T00:06:29.379Z,14.53
2019-03-22T00:08:34.270Z,14.00
2019-03-22T00:10:39.324Z,12.23
2019-03-22T00:12:44.102Z,12.77
2019-03-22T00:14:49.211Z,12.40
2019-03-22T00:16:54.343Z,11.43
2019-03-22T00:18:59.694Z,12.30
2019-03-22T00:21:05.368Z,12.00
2019-03-22T00:23:10.331Z,11.73
2019-03-22T00:25:15.388Z,11.30
2019-03-22T00:27:22.012Z,11.40
2019-03-22T00:29:26.817Z,10.20
2019-03-22T00:31:32.034Z,11.40
2019-03-22T00:33:37.344Z,10.43
2019-03-22T00:35:42.418Z,11.10
2019-03-22T00:37:47.453Z,11.00
2019-03-22T00:39:53.095Z,9.97
2019-03-22T00:41:58.263Z,10.10
2019-03-22T00:44:03.453Z,10.27
2019-03-22T00:46:09.143Z,10.50
2019-03-22T00:48:14.146Z,10.73
2019-03-22T00:50:18.981Z,9.77
2019-03-22T00:52:24.543Z,9.90
2019-03-22T00:54:29.557Z,9.93
2019-03-22T00:56:34.654Z,9.37
2019-03-22T00:58:40.019Z,9.60
2019-03-22T01:00:44.921Z,10.27
2019-03-22T01:02:50.071Z,9.80
2019-03-22T01:04:55.211Z,9.40
2019-03-22T01:07:00.575Z,9.73
2019-03-22T01:09:06.504Z,10.50
2019-03-22T01:11:12.207Z,9.80
2019-03-22T01:13:17.420Z,8.90
2019-03-22T01:15:22.451Z,9.70
2019-03-22T01:17:30.357Z,9.27
2019-03-22T01:19:35.391Z,9.80
2019-03-22T01:21:40.220Z,10.87
2019-03-22T01:23:45.209Z,9.33
2019-03-22T01:25:50.307Z,9.57
2019-03-22T01:27:59.689Z,8.70
2019-03-22T01:30:07.181Z,9.43
2019-03-22T01:32:12.223Z,9.70
2019-03-22T01:34:21.365Z,9.60
2019-03-22T01:36:27.798Z,8.93
2019-03-22T01:38:35.066Z,9.70
2019-03-22T01:40:41.407Z,9.60
2019-03-22T01:42:46.985Z,9.33
2019-03-22T01:44:52.603Z,8.50
2019-03-22T01:46:59.899Z,8.90
2019-03-22T01:49:05.327Z,8.63
2019-03-22T01:51:10.955Z,9.20
2019-03-22T01:53:15.907Z,10.17
2019-03-22T01:55:22.062Z,9.20
2019-03-22T01:57:28.208Z,9.07
2019-03-22T01:59:33.983Z,9.10
2019-03-22T02:01:39.086Z,8.47
2019-03-22T02:03:44.585Z,9.57
2019-03-22T02:05:49.594Z,9.30
2019-03-22T02:07:55.155Z,9.43
2019-03-22T02:10:00.739Z,9.47
2019-03-22T02:12:06.212Z,8.90
2019-03-22T02:14:12.550Z,9.30
2019-03-22T02:16:17.673Z,8.50
2019-03-22T02:18:22.742Z,8.50
2019-03-22T02:20:27.718Z,9.27
2019-03-22T02:22:32.893Z,9.03
2019-03-22T02:24:37.874Z,8.40
2019-03-22T02:26:42.805Z,8.63
2019-03-22T02:28:48.151Z,8.53
2019-03-22T02:30:53.197Z,9.03
2019-03-22T02:32:58.191Z,9.80
2019-03-22T02:35:03.130Z,9.30
2019-03-22T02:37:08.295Z,8.30
2019-03-22T02:39:13.413Z,8.40
2019-03-22T02:41:18.266Z,8.50
2019-03-22T02:43:23.763Z,7.67
2019-03-22T02:45:28.574Z,9.13
2019-03-22T02:47:33.439Z,8.70
2019-03-22T02:49:39.069Z,8.17
2019-03-22T02:51:44.174Z,8.50
2019-03-22T02:53:49.228Z,7.93
2019-03-22T02:55:55.101Z,8.33
2019-03-22T02:58:00.354Z,7.73
2019-03-22T03:00:06.257Z,8.93
2019-03-22T03:02:12.271Z,8.80
2019-03-22T03:04:17.597Z,8.20
2019-03-22T03:06:23.198Z,8.00
2019-03-22T03:08:28.424Z,8.17
2019-03-22T03:10:33.323Z,8.60
2019-03-22T03:12:38.316Z,8.30
2019-03-22T03:14:43.307Z,8.23
2019-03-22T03:16:49.154Z,9.20
2019-03-22T03:18:54.460Z,7.20
2019-03-22T03:20:59.545Z,8.00
2019-03-22T03:23:04.525Z,7.97
2019-03-22T03:25:09.726Z,9.27
2019-03-22T03:27:17.189Z,8.17
2019-03-22T03:29:22.686Z,7.90
2019-03-22T03:31:27.724Z,7.60
2019-03-22T03:33:32.645Z,7.93
2019-03-22T03:35:37.731Z,7.90
2019-03-22T03:37:43.562Z,7.77
2019-03-22T03:39:48.529Z,8.00
2019-03-22T03:41:54.168Z,7.50
2019-03-22T03:43:59.489Z,7.40
2019-03-22T03:46:04.571Z,8.37
2019-03-22T03:48:10.160Z,8.87
2019-03-22T03:50:16.142Z,8.00
2019-03-22T03:52:21.508Z,8.40
2019-03-22T03:54:27.034Z,8.17
2019-03-22T03:56:32.773Z,7.97
2019-03-22T03:58:51.562Z,8.07
2019-03-22T04:00:44.992Z,8.10
2019-03-22T04:02:50.834Z,7.90
2019-03-22T04:04:56.060Z,7.70
2019-03-22T04:07:00.934Z,7.80
2019-03-22T04:09:08.027Z,7.53
2019-03-22T04:11:13.035Z,7.73
2019-03-22T04:13:21.272Z,8.43
2019-03-22T04:15:27.162Z,8.10
2019-03-22T04:17:32.573Z,8.20
2019-03-22T04:19:37.872Z,8.60
2019-03-22T04:21:43.889Z,8.50
2019-03-22T04:23:49.179Z,7.93
2019-03-22T04:25:54.363Z,7.83
2019-03-22T04:27:59.613Z,7.67
2019-03-22T04:30:04.795Z,6.77
2019-03-22T04:32:09.911Z,7.10
2019-03-22T04:34:14.832Z,7.27
2019-03-22T04:36:19.801Z,7.90
2019-03-22T04:38:25.474Z,7.60
2019-03-22T04:40:30.295Z,7.60
2019-03-22T04:42:37.371Z,7.30
2019-03-22T04:44:42.273Z,7.67
2019-03-22T04:46:47.519Z,7.50
2019-03-22T04:48:52.566Z,7.63
2019-03-22T04:50:58.940Z,7.27
2019-03-22T04:53:04.660Z,7.60
2019-03-22T04:55:09.792Z,7.30
2019-03-22T04:57:15.053Z,8.07
2019-03-22T04:59:20.282Z,7.57
2019-03-22T05:01:25.040Z,7.90
2019-03-22T05:03:30.140Z,8.00
2019-03-22T05:05:34.924Z,7.87
2019-03-22T05:07:40.002Z,7.90
2019-03-22T05:09:45.764Z,8.90
2019-03-22T05:11:58.744Z,8.67
2019-03-22T05:14:07.262Z,8.57
2019-03-22T05:16:13.744Z,8.70
2019-03-22T05:18:19.882Z,8.43
2019-03-22T05:20:25.980Z,9.13
2019-03-22T05:22:32.176Z,8.60
2019-03-22T05:24:37.656Z,9.43
2019-03-22T05:26:42.546Z,9.70
2019-03-22T05:28:47.574Z,9.67
2019-03-22T05:31:38.434Z,8.47
2019-03-22T05:33:43.330Z,9.33
2019-03-22T05:35:48.834Z,9.90
2019-03-22T05:37:53.608Z,8.93
2019-03-22T05:39:58.274Z,9.30
2019-03-22T05:42:03.134Z,10.03
2019-03-22T05:44:08.262Z,9.60
2019-03-22T05:46:13.084Z,9.00
2019-03-22T05:48:18.196Z,9.27
2019-03-22T05:50:23.260Z,8.60
2019-03-22T05:52:27.972Z,9.70
2019-03-22T05:54:32.819Z,9.30
2019-03-22T05:56:37.986Z,9.33
2019-03-22T05:58:43.074Z,9.20
2019-03-22T06:00:47.863Z,10.13
2019-03-22T06:02:52.846Z,10.10
2019-03-22T06:04:57.899Z,10.23
2019-03-22T06:07:03.636Z,18.00
2019-03-22T06:09:10.090Z,269.30
2019-03-22T06:11:15.096Z,246.87
2019-03-22T06:13:19.767Z,441.87
2019-03-22T06:15:24.947Z,470.40
2019-03-22T06:17:29.794Z,525.80
2019-03-22T06:19:34.471Z,792.10
2019-03-22T06:21:39.632Z,659.73
2019-03-22T06:23:44.509Z,485.80
2019-03-22T06:25:49.525Z,167.07
2019-03-22T06:27:54.907Z,36.17
2019-03-22T06:29:59.582Z,23.37
2019-03-22T06:32:04.907Z,18.03
2019-03-22T06:34:13.479Z,16.40
2019-03-22T06:36:18.268Z,13.43
2019-03-22T06:38:23.043Z,13.30
2019-03-22T06:40:32.118Z,12.20
2019-03-22T06:42:37.044Z,11.90
2019-03-22T06:44:42.175Z,11.93
2019-03-22T06:46:47.251Z,12.17
2019-03-22T06:48:52.102Z,11.63
2019-03-22T06:50:57.017Z,10.73
2019-03-22T06:53:01.780Z,12.23
2019-03-22T06:55:07.423Z,10.50
2019-03-22T06:57:12.094Z,10.67
2019-03-22T06:59:17.937Z,10.57
2019-03-22T07:01:22.747Z,10.20
2019-03-22T07:03:27.751Z,10.73
2019-03-22T07:05:33.130Z,9.73
2019-03-22T07:07:37.875Z,205.10
2019-03-22T07:09:42.849Z,183.43
2019-03-22T07:11:47.502Z,248.70
2019-03-22T07:13:55.397Z,84.37
2019-03-22T07:16:00.214Z,55.57
2019-03-22T07:18:05.586Z,45.50
2019-03-22T07:20:10.853Z,42.40
2019-03-22T07:22:16.040Z,39.73
2019-03-22T07:24:21.205Z,329.40
2019-03-22T07:26:26.114Z,154.37
2019-03-22T07:28:31.834Z,281.00
2019-03-22T07:30:37.171Z,168.87
2019-03-22T07:32:42.236Z,109.50
2019-03-22T07:34:47.376Z,198.27
2019-03-22T07:36:52.816Z,149.80
2019-03-22T07:38:59.182Z,296.10
2019-03-22T07:41:04.023Z,223.23
2019-03-22T07:43:09.073Z,171.67
2019-03-22T07:45:16.055Z,89.33
2019-03-22T07:47:20.867Z,112.30
2019-03-22T07:49:25.907Z,66.60
2019-03-22T07:51:30.674Z,265.80
2019-03-22T07:53:35.429Z,511.00
2019-03-22T07:55:40.840Z,306.53
2019-03-22T07:57:45.622Z,145.33
2019-03-22T07:59:50.615Z,999.90
2019-03-22T08:01:56.166Z,370.53
2019-03-22T08:04:01.043Z,90.70
2019-03-22T08:06:06.853Z,695.63
2019-03-22T08:08:11.615Z,77.83
2019-03-22T08:10:18.329Z,80.20
2019-03-22T08:12:23.330Z,183.77
2019-03-22T08:14:28.338Z,576.93
2019-03-22T08:16:34.375Z,167.80
2019-03-22T08:18:39.507Z,196.63
2019-03-22T08:20:44.970Z,134.50
2019-03-22T08:22:50.938Z,137.67
2019-03-22T08:24:56.039Z,262.27
2019-03-22T08:27:01.307Z,999.90
2019-03-22T08:29:06.034Z,229.13
2019-03-22T08:31:13.054Z,286.13
2019-03-22T08:33:18.190Z,241.87
2019-03-22T08:35:22.971Z,263.50
2019-03-22T08:37:27.730Z,207.17
2019-03-22T08:39:33.121Z,449.93
2019-03-22T08:41:38.854Z,208.07
2019-03-22T08:43:44.144Z,660.40
2019-03-22T08:45:49.119Z,857.43
2019-03-22T08:47:54.048Z,613.67
2019-03-22T08:49:59.358Z,174.17
2019-03-22T08:52:04.784Z,105.60
2019-03-22T08:54:09.602Z,118.20
2019-03-22T08:56:15.039Z,206.70
2019-03-22T08:58:20.224Z,904.87
2019-03-22T09:00:38.326Z,288.00
2019-03-22T09:02:32.526Z,197.70
2019-03-22T09:04:37.309Z,615.30
2019-03-22T09:06:42.645Z,434.53
2019-03-22T09:08:47.982Z,312.57
2019-03-22T09:10:52.806Z,187.70
2019-03-22T09:12:58.249Z,140.37
2019-03-22T09:15:03.367Z,102.03
2019-03-22T09:17:08.091Z,88.13
2019-03-22T09:19:13.545Z,67.43
2019-03-22T09:21:18.371Z,348.90
2019-03-22T09:23:23.072Z,137.37
2019-03-22T09:25:28.488Z,87.90
2019-03-22T09:27:33.286Z,668.97
2019-03-22T09:29:39.751Z,135.33
2019-03-22T09:31:45.039Z,144.17
2019-03-22T09:33:49.771Z,125.80
2019-03-22T09:35:54.674Z,111.90
2019-03-22T09:38:12.037Z,112.70
2019-03-22T09:40:08.448Z,562.20
2019-03-22T09:42:13.137Z,382.47
2019-03-22T09:44:18.294Z,753.60
2019-03-22T09:46:23.444Z,999.90
2019-03-22T09:48:28.483Z,731.67
2019-03-22T09:50:33.693Z,397.73
2019-03-22T09:52:38.596Z,382.33
2019-03-22T09:54:43.448Z,529.07
2019-03-22T09:56:48.802Z,999.90
2019-03-22T09:58:53.854Z,999.90
2019-03-22T10:00:58.851Z,362.80
2019-03-22T10:03:04.185Z,304.93
2019-03-22T10:05:08.889Z,291.47
2019-03-22T10:07:13.993Z,262.77
2019-03-22T10:09:18.980Z,241.93
2019-03-22T10:11:23.694Z,240.93
2019-03-22T10:13:28.395Z,233.57
2019-03-22T10:15:33.147Z,285.43
2019-03-22T10:17:37.853Z,233.83
2019-03-22T10:19:42.865Z,216.00
2019-03-22T10:21:48.287Z,202.33
2019-03-22T10:23:53.162Z,214.90
2019-03-22T10:25:57.873Z,189.97
2019-03-22T10:28:03.111Z,182.97
2019-03-22T10:30:08.151Z,188.47
2019-03-22T10:32:12.852Z,555.83
2019-03-22T10:34:18.670Z,999.90
2019-03-22T10:36:23.587Z,627.00
2019-03-22T10:38:32.175Z,533.80
2019-03-22T10:40:37.092Z,384.90
2019-03-22T10:42:41.989Z,755.70
2019-03-22T10:44:46.990Z,453.23
2019-03-22T10:46:52.151Z,369.63
2019-03-22T10:49:01.852Z,770.80
2019-03-22T10:51:06.561Z,457.53
2019-03-22T10:53:11.572Z,407.83
2019-03-22T10:55:29.267Z,999.90
2019-03-22T10:57:23.051Z,480.10
2019-03-22T10:59:28.518Z,396.70
2019-03-22T11:01:46.465Z,531.03
2019-03-22T11:03:40.664Z,768.83
2019-03-22T11:05:45.431Z,413.83
2019-03-22T11:07:50.143Z,693.10
2019-03-22T11:09:55.022Z,996.33
2019-03-22T11:11:59.734Z,463.73
2019-03-22T11:14:05.057Z,711.50
2019-03-22T11:16:09.834Z,429.00
2019-03-22T11:18:14.865Z,379.17
2019-03-22T11:20:20.010Z,358.90
2019-03-22T11:22:24.783Z,318.97
2019-03-22T11:24:29.523Z,309.47
2019-03-22T11:26:34.663Z,299.47
2019-03-22T11:28:39.514Z,277.47
2019-03-22T11:30:44.321Z,277.27
2019-03-22T11:32:49.537Z,256.50
2019-03-22T11:34:55.530Z,249.60
2019-03-22T11:37:00.649Z,513.03
2019-03-22T11:39:15.375Z,462.60
2019-03-22T11:41:16.032Z,351.47
2019-03-22T11:43:20.810Z,362.60
2019-03-22T11:45:26.590Z,361.60
2019-03-22T11:47:31.633Z,371.43
2019-03-22T11:49:36.840Z,514.93
2019-03-22T11:51:42.076Z,414.93
2019-03-22T11:53:46.755Z,404.97
2019-03-22T11:55:51.756Z,391.40
2019-03-22T11:57:56.482Z,377.70
2019-03-22T12:00:01.186Z,970.53
2019-03-22T12:02:05.993Z,454.67
2019-03-22T12:04:11.923Z,396.57
2019-03-22T12:06:17.191Z,375.63
2019-03-22T12:08:22.073Z,560.13
2019-03-22T12:10:27.186Z,372.80
2019-03-22T12:12:32.030Z,353.17
2019-03-22T12:14:36.706Z,337.67
2019-03-22T12:16:41.855Z,337.03
2019-03-22T12:18:46.976Z,326.37
2019-03-22T12:20:51.694Z,490.80
2019-03-22T12:22:56.824Z,652.93
2019-03-22T12:25:01.549Z,383.83
2019-03-22T12:27:07.403Z,417.07
2019-03-22T12:29:12.734Z,899.63
2019-03-22T12:31:19.942Z,483.50
2019-03-22T12:33:25.019Z,452.13
2019-03-22T12:35:30.877Z,447.37
2019-03-22T12:37:35.780Z,444.67
2019-03-22T12:39:41.907Z,479.73
2019-03-22T12:41:46.872Z,999.90
2019-03-22T12:43:51.758Z,999.90
2019-03-22T12:45:57.102Z,607.50
2019-03-22T12:48:07.302Z,543.03
2019-03-22T12:50:12.246Z,463.30
2019-03-22T12:52:17.025Z,430.43
2019-03-22T12:54:22.557Z,407.77
2019-03-22T12:56:28.282Z,403.50
2019-03-22T12:58:35.201Z,421.60
2019-03-22T13:00:40.636Z,443.23
2019-03-22T13:02:45.871Z,441.90
2019-03-22T13:04:52.779Z,999.90
2019-03-22T13:06:58.807Z,489.53
2019-03-22T13:09:03.723Z,501.93
2019-03-22T13:11:11.871Z,503.93
2019-03-22T13:13:17.402Z,492.40
2019-03-22T13:15:22.850Z,510.53
2019-03-22T13:17:27.941Z,505.00
2019-03-22T13:19:33.267Z,523.40
2019-03-22T13:21:37.953Z,545.07
2019-03-22T13:23:42.947Z,550.70
2019-03-22T13:25:48.918Z,556.07
2019-03-22T13:27:55.142Z,544.73
2019-03-22T13:30:00.119Z,532.87
2019-03-22T13:32:05.221Z,531.40
2019-03-22T13:34:10.306Z,532.77
2019-03-22T13:36:16.996Z,520.80
2019-03-22T13:38:25.476Z,508.47
2019-03-22T13:40:30.743Z,523.73
2019-03-22T13:42:35.568Z,552.07
2019-03-22T13:44:40.606Z,581.10
2019-03-22T13:46:45.355Z,591.67
2019-03-22T13:48:50.758Z,595.30
2019-03-22T13:50:56.594Z,629.63
2019-03-22T13:53:03.063Z,586.47
2019-03-22T13:55:08.120Z,579.60
2019-03-22T13:57:13.476Z,662.07
2019-03-22T13:59:18.377Z,896.43
2019-03-22T14:01:28.702Z,574.90
2019-03-22T14:03:34.389Z,598.27
2019-03-22T14:05:48.638Z,999.90
2019-03-22T14:07:53.707Z,646.10
2019-03-22T14:09:58.859Z,637.17
2019-03-22T14:12:03.603Z,643.73
2019-03-22T14:14:08.423Z,647.70
2019-03-22T14:16:14.762Z,640.40
2019-03-22T14:18:24.924Z,609.83
2019-03-22T14:20:30.011Z,601.97
2019-03-22T14:22:34.989Z,599.93
2019-03-22T14:24:39.998Z,586.43
2019-03-22T14:26:45.281Z,578.37
2019-03-22T14:28:52.223Z,553.80
2019-03-22T14:30:56.962Z,644.40
2019-03-22T14:33:12.824Z,768.13
2019-03-22T14:35:12.321Z,544.73
2019-03-22T14:37:17.094Z,603.43
2019-03-22T14:39:21.938Z,646.70
2019-03-22T14:41:27.118Z,569.30
2019-03-22T14:43:32.035Z,559.93
2019-03-22T14:45:37.373Z,583.20
2019-03-22T14:47:42.534Z,551.10
2019-03-22T14:49:48.616Z,574.10
2019-03-22T14:51:54.349Z,571.03
2019-03-22T14:54:00.152Z,582.40
2019-03-22T14:56:06.731Z,612.33
2019-03-22T14:58:12.252Z,616.67
2019-03-22T15:00:17.280Z,606.50
2019-03-22T15:02:22.115Z,963.70
2019-03-22T15:04:27.076Z,635.60
2019-03-22T15:06:33.378Z,575.43
2019-03-22T15:08:38.643Z,567.77
2019-03-22T15:10:43.567Z,587.93
2019-03-22T15:12:49.865Z,894.30
2019-03-22T15:15:06.916Z,888.03
2019-03-22T15:17:23.268Z,642.70
2019-03-22T15:19:45.634Z,999.90
2019-03-22T15:22:02.830Z,753.03
2019-03-22T15:24:32.538Z,595.20
2019-03-22T15:26:59.935Z,669.27
2019-03-22T15:29:32.410Z,622.33
2019-03-22T15:31:56.443Z,723.03
2019-03-22T15:34:18.617Z,670.77
2019-03-22T15:36:41.158Z,892.67
2019-03-22T15:39:09.958Z,526.87
2019-03-22T15:41:15.017Z,506.77
2019-03-22T15:43:19.751Z,496.60
2019-03-22T15:45:24.462Z,478.50
2019-03-22T15:47:29.445Z,947.33
2019-03-22T15:49:34.177Z,747.70
2019-03-22T15:51:40.024Z,697.97
2019-03-22T15:53:45.309Z,621.87
2019-03-22T15:55:50.291Z,643.27
2019-03-22T15:57:55.538Z,625.20
2019-03-22T16:00:00.470Z,625.47
2019-03-22T16:02:05.830Z,628.50
2019-03-22T16:04:11.311Z,587.00
2019-03-22T16:06:16.264Z,582.60
2019-03-22T16:08:21.339Z,558.10
2019-03-22T16:10:26.691Z,775.30
2019-03-22T16:12:31.580Z,583.00
2019-03-22T16:14:37.034Z,545.53
2019-03-22T16:16:42.025Z,547.77
2019-03-22T16:18:48.800Z,536.10
2019-03-22T16:20:59.908Z,522.40
2019-03-22T16:23:01.078Z,515.30
2019-03-22T16:25:08.697Z,507.57
2019-03-22T16:27:14.316Z,512.13
2019-03-22T16:29:20.142Z,634.27
2019-03-22T16:31:24.957Z,684.97
2019-03-22T16:33:30.393Z,825.93
2019-03-22T16:35:35.504Z,964.13
2019-03-22T16:37:40.749Z,516.20
2019-03-22T16:39:46.160Z,800.07
2019-03-22T16:41:51.138Z,515.77
2019-03-22T16:43:56.372Z,514.17
2019-03-22T16:46:01.560Z,581.93
2019-03-22T16:48:06.433Z,494.90
2019-03-22T16:50:23.280Z,608.37
2019-03-22T16:52:28.732Z,844.00
2019-03-22T16:54:33.628Z,872.50
2019-03-22T16:56:38.385Z,821.87
2019-03-22T16:58:43.530Z,690.40
2019-03-22T17:00:50.067Z,601.10
2019-03-22T17:02:54.924Z,999.90
2019-03-22T17:05:00.341Z,706.57
2019-03-22T17:07:05.209Z,594.57
2019-03-22T17:09:10.054Z,974.43
2019-03-22T17:11:15.384Z,880.40
2019-03-22T17:13:20.428Z,708.30
2019-03-22T17:15:25.274Z,701.57
2019-03-22T17:17:30.433Z,673.30
2019-03-22T17:19:35.377Z,635.70
2019-03-22T17:21:40.225Z,545.17
2019-03-22T17:23:45.451Z,608.67
2019-03-22T17:25:50.237Z,559.40
2019-03-22T17:27:54.951Z,572.57
2019-03-22T17:30:00.022Z,594.57
2019-03-22T17:32:04.913Z,594.73
2019-03-22T17:34:14.220Z,566.53
2019-03-22T17:36:16.655Z,559.50
2019-03-22T17:38:21.522Z,430.97
2019-03-22T17:40:26.451Z,430.30
2019-03-22T17:42:31.202Z,999.90
2019-03-22T17:44:36.048Z,764.20
2019-03-22T17:46:40.952Z,555.47
2019-03-22T17:48:46.047Z,826.40
2019-03-22T17:50:50.809Z,889.27
2019-03-22T17:52:55.600Z,519.90
2019-03-22T17:55:00.834Z,368.73
2019-03-22T17:57:05.571Z,333.50
2019-03-22T17:59:10.449Z,379.07
2019-03-22T18:01:15.599Z,516.27
2019-03-22T18:03:20.294Z,537.57
2019-03-22T18:05:25.285Z,549.60
2019-03-22T18:07:30.055Z,542.50
2019-03-22T18:09:34.902Z,527.83
2019-03-22T18:11:39.622Z,515.03
2019-03-22T18:13:44.671Z,506.37
2019-03-22T18:15:49.463Z,617.03
2019-03-22T18:17:54.253Z,960.77
2019-03-22T18:19:59.307Z,783.10
2019-03-22T18:22:04.128Z,999.90
2019-03-22T18:24:08.866Z,930.40
2019-03-22T18:26:14.327Z,772.03
2019-03-22T18:28:19.066Z,934.90
2019-03-22T18:30:23.812Z,843.33
2019-03-22T18:32:28.681Z,883.37
2019-03-22T18:34:34.853Z,994.17
2019-03-22T18:36:39.849Z,999.90
2019-03-22T18:38:44.869Z,922.33
2019-03-22T18:40:49.689Z,842.33
2019-03-22T18:42:54.434Z,947.13
2019-03-22T18:44:59.712Z,937.10
2019-03-22T18:47:04.571Z,999.90
2019-03-22T18:49:09.311Z,881.90
2019-03-22T18:51:14.986Z,950.43
2019-03-22T18:53:19.722Z,831.83
2019-03-22T18:55:28.630Z,764.83
2019-03-22T18:57:36.000Z,709.20
2019-03-22T18:59:42.986Z,636.70
2019-03-22T19:01:47.846Z,589.20
2019-03-22T19:03:53.054Z,549.63
2019-03-22T19:06:04.331Z,519.20
2019-03-22T19:08:10.151Z,488.77
2019-03-22T19:10:15.446Z,855.17
2019-03-22T19:12:23.358Z,666.90
2019-03-22T19:14:29.279Z,540.63
2019-03-22T19:16:35.603Z,906.47
2019-03-22T19:18:40.940Z,756.27
2019-03-22T19:20:46.023Z,913.90
2019-03-22T19:22:51.614Z,966.13
2019-03-22T19:24:56.871Z,944.90
2019-03-22T19:27:01.625Z,777.63
2019-03-22T19:29:08.119Z,638.00
2019-03-22T19:31:13.861Z,861.97
2019-03-22T19:33:19.144Z,939.53
2019-03-22T19:35:27.082Z,915.90
2019-03-22T19:37:33.426Z,891.30
2019-03-22T19:39:38.587Z,771.10
2019-03-22T19:41:45.196Z,670.67
2019-03-22T19:43:50.255Z,571.03
2019-03-22T19:45:59.820Z,513.67
2019-03-22T19:48:07.420Z,452.87
2019-03-22T19:50:16.933Z,574.40
2019-03-22T19:52:23.112Z,584.27
2019-03-22T19:54:28.128Z,631.27
2019-03-22T19:56:33.812Z,646.73
2019-03-22T19:58:38.932Z,635.70
2019-03-22T20:00:44.229Z,620.67
2019-03-22T20:02:49.914Z,665.50
2019-03-22T20:05:04.754Z,580.77
2019-03-22T20:07:07.029Z,552.37
2019-03-22T20:09:14.360Z,547.07
2019-03-22T20:11:20.515Z,665.53
2019-03-22T20:13:25.708Z,924.03
2019-03-22T20:15:31.131Z,658.27
2019-03-22T20:17:35.962Z,570.43
2019-03-22T20:19:41.443Z,893.77
2019-03-22T20:21:50.724Z,947.87
2019-03-22T20:23:55.529Z,674.33
2019-03-22T20:26:00.846Z,859.20
2019-03-22T20:28:23.603Z,856.40
2019-03-22T20:30:34.751Z,629.47
2019-03-22T20:32:41.081Z,540.93
2019-03-22T20:34:46.029Z,604.40
2019-03-22T20:36:55.025Z,545.13
2019-03-22T20:39:00.962Z,668.57
2019-03-22T20:41:10.876Z,869.10
2019-03-22T20:43:16.414Z,723.13
2019-03-22T20:45:24.360Z,570.43
2019-03-22T20:47:27.730Z,530.00
2019-03-22T20:49:33.039Z,495.07
2019-03-22T20:51:39.178Z,424.77
2019-03-22T20:53:44.875Z,391.60
2019-03-22T20:55:49.576Z,428.93
2019-03-22T20:57:55.686Z,737.60
2019-03-22T21:00:00.509Z,999.73
2019-03-22T21:02:06.920Z,680.63
2019-03-22T21:04:12.732Z,456.20
2019-03-22T21:06:17.499Z,419.63
2019-03-22T21:08:26.460Z,563.83
2019-03-22T21:10:33.003Z,498.80
2019-03-22T21:12:38.666Z,415.20
2019-03-22T21:14:44.031Z,560.20
2019-03-22T21:17:01.898Z,570.13
2019-03-22T21:19:11.580Z,566.37
2019-03-22T21:21:18.736Z,377.10
2019-03-22T21:23:35.731Z,323.17
2019-03-22T21:25:31.675Z,313.80
2019-03-22T21:27:36.790Z,300.17
2019-03-22T21:29:44.390Z,440.63
2019-03-22T21:31:48.580Z,459.63
2019-03-22T21:33:53.494Z,700.47
2019-03-22T21:36:01.621Z,872.13
2019-03-22T21:38:11.062Z,535.27
2019-03-22T21:40:18.620Z,785.93
2019-03-22T21:42:23.706Z,727.03
2019-03-22T21:44:29.653Z,738.43
2019-03-22T21:46:34.311Z,702.40
2019-03-22T21:48:40.727Z,648.30
2019-03-22T21:50:45.419Z,582.37
2019-03-22T21:52:51.597Z,531.07
2019-03-22T21:54:56.764Z,515.20
2019-03-22T21:57:02.559Z,524.27
2019-03-22T21:59:07.324Z,519.07
2019-03-22T22:01:12.886Z,498.70
2019-03-22T22:03:22.743Z,497.70
2019-03-22T22:05:58.927Z,488.90
2019-03-22T22:08:13.036Z,476.83
2019-03-22T22:10:20.360Z,462.40
2019-03-22T22:12:26.301Z,459.30
2019-03-22T22:14:40.482Z,455.73
2019-03-22T22:16:37.957Z,502.13
2019-03-22T22:18:45.814Z,679.33
2019-03-22T22:20:52.944Z,587.20
2019-03-22T22:23:02.398Z,575.33
2019-03-22T22:25:07.856Z,455.87
2019-03-22T22:27:14.379Z,444.27
2019-03-22T22:29:20.031Z,437.90
2019-03-22T22:31:25.297Z,551.60
2019-03-22T22:33:30.526Z,586.30
2019-03-22T22:35:37.274Z,475.53
2019-03-22T22:37:42.300Z,422.07
2019-03-22T22:39:47.495Z,524.47
2019-03-22T22:41:54.329Z,886.23
2019-03-22T22:43:59.466Z,712.83
2019-03-22T22:46:04.915Z,477.17
2019-03-22T22:48:09.598Z,453.40
2019-03-22T22:50:15.202Z,534.70
2019-03-22T22:52:21.550Z,579.23
2019-03-22T22:54:26.322Z,724.30
2019-03-22T22:56:31.530Z,599.57
2019-03-22T22:58:37.253Z,744.73
2019-03-22T23:00:43.507Z,732.40
2019-03-22T23:02:49.397Z,643.67
2019-03-22T23:04:54.625Z,682.60
2019-03-22T23:07:11.860Z,604.80
2019-03-22T23:09:16.571Z,567.90
2019-03-22T23:11:21.943Z,563.47
2019-03-22T23:13:27.116Z,555.70
2019-03-22T23:15:32.306Z,545.50
2019-03-22T23:17:37.732Z,652.03
2019-03-22T23:19:43.090Z,545.53
2019-03-22T23:21:50.978Z,623.23
2019-03-22T23:23:55.990Z,698.60
2019-03-22T23:26:02.298Z,732.10
2019-03-22T23:28:09.687Z,702.00
2019-03-22T23:30:18.539Z,687.13
2019-03-22T23:32:24.712Z,686.33
2019-03-22T23:34:32.966Z,703.17
2019-03-22T23:36:41.341Z,757.10
2019-03-22T23:38:46.910Z,797.00
2019-03-22T23:40:53.929Z,803.13
2019-03-22T23:43:02.177Z,805.03
2019-03-22T23:45:09.016Z,798.90
2019-03-22T23:47:14.377Z,786.87
2019-03-22T23:49:20.780Z,777.67
2019-03-22T23:51:26.415Z,767.43
2019-03-22T23:53:32.270Z,761.17
2019-03-22T23:55:37.564Z,752.07
2019-03-22T23:57:42.395Z,741.10
2019-03-22T23:59:47.268Z,753.97
